sensor_id;sensor_type;location;lat;lon;timestamp;P1;durP1;ratioP1;P2;durP2;ratioP2
21675;SDS011;10999;51.332;9.458;2024-01-11T00:16:43;22.58;;;8.50;;
21675;SDS011;10999;51.332;9.458;2024-01-11T00:24:09;26.45;;;9.90;;
21675;SDS011;10999;51.332;9.458;2024-01-11T00:27:56;21.27;;;8.23;;
21675;SDS011;10999;51.332;9.458;2024-01-11T00:31:44;25.95;;;8.60;;
21675;SDS011;10999;51.332;9.458;2024-01-11T00:35:31;22.48;;;9.48;;
21675;SDS011;10999;51.332;9.458;2024-01-11T00:53:59;26.38;;;10.77;;
21675;SDS011;10999;51.332;9.458;2024-01-11T09:54:04;33.67;;;14.52;;
21675;SDS011;10999;51.332;9.458;2024-01-11T09:56:55;35.92;;;16.73;;
21675;SDS011;10999;51.332;9.458;2024-01-11T09:59:51;35.15;;;13.30;;
21675;SDS011;10999;51.332;9.458;2024-01-11T10:02:50;35.88;;;14.40;;
21675;SDS011;10999;51.332;9.458;2024-01-11T10:05:44;39.90;;;16.33;;
21675;SDS011;10999;51.332;9.458;2024-01-11T10:08:36;31.40;;;13.95;;
21675;SDS011;10999;51.332;9.458;2024-01-11T10:11:59;28.67;;;14.00;;
21675;SDS011;10999;51.332;9.458;2024-01-11T10:15:21;41.20;;;15.68;;
21675;SDS011;10999;51.332;9.458;2024-01-11T10:18:16;36.72;;;15.15;;
21675;SDS011;10999;51.332;9.458;2024-01-11T10:21:43;30.30;;;12.20;;
21675;SDS011;10999;51.332;9.458;2024-01-11T11:52:55;36.25;;;15.93;;
21675;SDS011;10999;51.332;9.458;2024-01-11T11:55:24;32.92;;;15.75;;
21675;SDS011;10999;51.332;9.458;2024-01-11T11:57:52;34.30;;;14.55;;
21675;SDS011;10999;51.332;9.458;2024-01-11T12:00:25;36.92;;;14.63;;
21675;SDS011;10999;51.332;9.458;2024-01-11T12:02:56;32.95;;;14.15;;
21675;SDS011;10999;51.332;9.458;2024-01-11T12:05:27;33.00;;;16.10;;
21675;SDS011;10999;51.332;9.458;2024-01-11T12:07:55;23.02;;;9.73;;
21675;SDS011;10999;51.332;9.458;2024-01-11T12:10:24;16.27;;;6.00;;
21675;SDS011;10999;51.332;9.458;2024-01-11T12:12:56;15.10;;;5.97;;
21675;SDS011;10999;51.332;9.458;2024-01-11T12:15:26;16.73;;;6.47;;
21675;SDS011;10999;51.332;9.458;2024-01-11T12:17:58;17.10;;;5.63;;
21675;SDS011;10999;51.332;9.458;2024-01-11T12:20:28;15.60;;;5.78;;
21675;SDS011;10999;51.332;9.458;2024-01-11T12:23:03;18.52;;;6.70;;
21675;SDS011;10999;51.332;9.458;2024-01-11T12:25:32;17.02;;;7.57;;
21675;SDS011;10999;51.332;9.458;2024-01-11T12:28:03;16.02;;;6.72;;
21675;SDS011;10999;51.332;9.458;2024-01-11T12:30:34;16.65;;;6.22;;
21675;SDS011;10999;51.332;9.458;2024-01-11T12:33:05;17.63;;;7.40;;
21675;SDS011;10999;51.332;9.458;2024-01-11T12:35:38;19.48;;;6.82;;
21675;SDS011;10999;51.332;9.458;2024-01-11T12:38:09;18.27;;;6.40;;
21675;SDS011;10999;51.332;9.458;2024-01-11T12:40:37;16.50;;;6.43;;
21675;SDS011;10999;51.332;9.458;2024-01-11T12:43:07;17.60;;;5.97;;
21675;SDS011;10999;51.332;9.458;2024-01-11T12:45:36;18.38;;;6.78;;
21675;SDS011;10999;51.332;9.458;2024-01-11T12:48:12;14.75;;;5.40;;
21675;SDS011;10999;51.332;9.458;2024-01-11T12:50:42;17.85;;;5.75;;
21675;SDS011;10999;51.332;9.458;2024-01-11T12:53:11;13.60;;;4.43;;
21675;SDS011;10999;51.332;9.458;2024-01-11T12:55:47;11.50;;;4.88;;
21675;SDS011;10999;51.332;9.458;2024-01-11T12:58:24;14.02;;;4.95;;
21675;SDS011;10999;51.332;9.458;2024-01-11T13:01:11;12.95;;;4.57;;
21675;SDS011;10999;51.332;9.458;2024-01-11T13:03:49;12.95;;;5.03;;
21675;SDS011;10999;51.332;9.458;2024-01-11T13:06:43;10.70;;;4.20;;
21675;SDS011;10999;51.332;9.458;2024-01-11T13:10:17;17.92;;;5.30;;
21675;SDS011;10999;51.332;9.458;2024-01-11T13:13:12;12.45;;;5.45;;
21675;SDS011;10999;51.332;9.458;2024-01-11T13:16:01;16.08;;;5.65;;
21675;SDS011;10999;51.332;9.458;2024-01-11T13:18:47;15.10;;;6.03;;
21675;SDS011;10999;51.332;9.458;2024-01-11T13:21:38;14.73;;;5.70;;
21675;SDS011;10999;51.332;9.458;2024-01-11T13:24:29;15.48;;;6.20;;
21675;SDS011;10999;51.332;9.458;2024-01-11T13:27:13;12.57;;;5.20;;
21675;SDS011;10999;51.332;9.458;2024-01-11T13:29:59;14.75;;;6.07;;
21675;SDS011;10999;51.332;9.458;2024-01-11T13:33:00;15.35;;;5.75;;
21675;SDS011;10999;51.332;9.458;2024-01-11T13:36:13;14.40;;;5.22;;
21675;SDS011;10999;51.332;9.458;2024-01-11T13:38:59;14.52;;;5.93;;
21675;SDS011;10999;51.332;9.458;2024-01-11T13:41:38;14.18;;;5.95;;
21675;SDS011;10999;51.332;9.458;2024-01-11T13:44:26;13.63;;;5.13;;
21675;SDS011;10999;51.332;9.458;2024-01-11T13:47:17;14.18;;;5.38;;
21675;SDS011;10999;51.332;9.458;2024-01-11T13:49:55;17.17;;;7.43;;
21675;SDS011;10999;51.332;9.458;2024-01-11T13:52:22;15.70;;;6.53;;
21675;SDS011;10999;51.332;9.458;2024-01-11T13:54:58;16.90;;;6.28;;
21675;SDS011;10999;51.332;9.458;2024-01-11T13:57:34;20.05;;;6.97;;
21675;SDS011;10999;51.332;9.458;2024-01-11T14:00:14;21.38;;;7.90;;
21675;SDS011;10999;51.332;9.458;2024-01-11T14:02:59;20.00;;;7.30;;
21675;SDS011;10999;51.332;9.458;2024-01-11T14:05:45;19.70;;;7.60;;
21675;SDS011;10999;51.332;9.458;2024-01-11T14:08:19;19.60;;;8.30;;
21675;SDS011;10999;51.332;9.458;2024-01-11T14:10:56;21.88;;;7.97;;
21675;SDS011;10999;51.332;9.458;2024-01-11T14:13:43;21.80;;;8.70;;
21675;SDS011;10999;51.332;9.458;2024-01-11T14:16:27;20.35;;;7.88;;
21675;SDS011;10999;51.332;9.458;2024-01-11T14:19:13;20.45;;;8.70;;
21675;SDS011;10999;51.332;9.458;2024-01-11T14:22:09;21.02;;;6.75;;
21675;SDS011;10999;51.332;9.458;2024-01-11T14:24:43;18.92;;;7.13;;
21675;SDS011;10999;51.332;9.458;2024-01-11T14:27:32;20.92;;;8.52;;
21675;SDS011;10999;51.332;9.458;2024-01-11T14:30:27;22.33;;;7.68;;
21675;SDS011;10999;51.332;9.458;2024-01-11T14:33:21;20.13;;;7.85;;
21675;SDS011;10999;51.332;9.458;2024-01-11T14:36:09;23.88;;;9.30;;
21675;SDS011;10999;51.332;9.458;2024-01-11T14:39:12;21.58;;;8.88;;
21675;SDS011;10999;51.332;9.458;2024-01-11T14:41:48;26.42;;;10.52;;
21675;SDS011;10999;51.332;9.458;2024-01-11T14:44:32;20.80;;;9.98;;
21675;SDS011;10999;51.332;9.458;2024-01-11T14:47:10;20.90;;;9.15;;
21675;SDS011;10999;51.332;9.458;2024-01-11T14:49:47;19.08;;;7.65;;
21675;SDS011;10999;51.332;9.458;2024-01-11T14:52:31;16.63;;;7.60;;
21675;SDS011;10999;51.332;9.458;2024-01-11T14:57:45;16.27;;;6.43;;
21675;SDS011;10999;51.332;9.458;2024-01-11T15:00:30;17.40;;;6.10;;
21675;SDS011;10999;51.332;9.458;2024-01-11T15:03:09;18.90;;;6.47;;
21675;SDS011;10999;51.332;9.458;2024-01-11T15:06:03;15.35;;;5.97;;
21675;SDS011;10999;51.332;9.458;2024-01-11T15:08:56;20.83;;;7.07;;
21675;SDS011;10999;51.332;9.458;2024-01-11T15:11:41;17.48;;;6.57;;
21675;SDS011;10999;51.332;9.458;2024-01-11T15:14:35;17.52;;;7.07;;
21675;SDS011;10999;51.332;9.458;2024-01-11T15:17:17;24.58;;;8.52;;
21675;SDS011;10999;51.332;9.458;2024-01-11T15:19:56;19.38;;;8.40;;
21675;SDS011;10999;51.332;9.458;2024-01-11T15:22:45;19.40;;;7.53;;
21675;SDS011;10999;51.332;9.458;2024-01-11T15:25:28;20.42;;;7.90;;
21675;SDS011;10999;51.332;9.458;2024-01-11T15:28:13;19.60;;;7.07;;
21675;SDS011;10999;51.332;9.458;2024-01-11T15:30:48;22.23;;;9.23;;
21675;SDS011;10999;51.332;9.458;2024-01-11T15:33:55;23.02;;;8.55;;
21675;SDS011;10999;51.332;9.458;2024-01-11T15:37:57;18.05;;;8.05;;
21675;SDS011;10999;51.332;9.458;2024-01-11T15:41:18;19.95;;;7.30;;
21675;SDS011;10999;51.332;9.458;2024-01-11T15:44:55;16.88;;;6.05;;
21675;SDS011;10999;51.332;9.458;2024-01-11T15:48:38;17.35;;;6.45;;
21675;SDS011;10999;51.332;9.458;2024-01-11T15:52:47;13.57;;;5.57;;
21675;SDS011;10999;51.332;9.458;2024-01-11T16:00:10;15.32;;;6.38;;
21675;SDS011;10999;51.332;9.458;2024-01-11T16:03:39;14.07;;;6.00;;
21675;SDS011;10999;51.332;9.458;2024-01-11T16:06:10;16.65;;;6.40;;
21675;SDS011;10999;51.332;9.458;2024-01-11T16:08:43;18.40;;;6.30;;
21675;SDS011;10999;51.332;9.458;2024-01-11T16:11:19;15.73;;;6.28;;
21675;SDS011;10999;51.332;9.458;2024-01-11T16:14:13;17.02;;;7.20;;
21675;SDS011;10999;51.332;9.458;2024-01-11T16:16:47;22.50;;;6.28;;
21675;SDS011;10999;51.332;9.458;2024-01-11T16:19:14;16.40;;;6.63;;
21675;SDS011;10999;51.332;9.458;2024-01-11T16:21:50;16.40;;;6.55;;
21675;SDS011;10999;51.332;9.458;2024-01-11T16:24:38;18.75;;;6.75;;
21675;SDS011;10999;51.332;9.458;2024-01-11T16:27:25;18.60;;;6.25;;
21675;SDS011;10999;51.332;9.458;2024-01-11T16:30:05;17.67;;;6.55;;
21675;SDS011;10999;51.332;9.458;2024-01-11T16:32:53;16.65;;;6.82;;
21675;SDS011;10999;51.332;9.458;2024-01-11T16:35:39;17.58;;;6.30;;
21675;SDS011;10999;51.332;9.458;2024-01-11T16:38:24;19.10;;;7.90;;
21675;SDS011;10999;51.332;9.458;2024-01-11T16:41:07;22.83;;;9.63;;
21675;SDS011;10999;51.332;9.458;2024-01-11T16:43:55;19.55;;;7.82;;
21675;SDS011;10999;51.332;9.458;2024-01-11T16:46:45;21.02;;;7.63;;
21675;SDS011;10999;51.332;9.458;2024-01-11T16:49:33;14.77;;;6.30;;
21675;SDS011;10999;51.332;9.458;2024-01-11T16:52:37;16.98;;;7.07;;
21675;SDS011;10999;51.332;9.458;2024-01-11T16:55:15;21.92;;;8.88;;
21675;SDS011;10999;51.332;9.458;2024-01-11T16:59:04;17.00;;;7.18;;
21675;SDS011;10999;51.332;9.458;2024-01-11T17:01:49;19.35;;;7.82;;
21675;SDS011;10999;51.332;9.458;2024-01-11T17:04:36;18.95;;;8.48;;
21675;SDS011;10999;51.332;9.458;2024-01-11T17:07:36;22.20;;;9.10;;
21675;SDS011;10999;51.332;9.458;2024-01-11T17:10:25;22.25;;;7.63;;
21675;SDS011;10999;51.332;9.458;2024-01-11T17:13:31;24.30;;;9.73;;
21675;SDS011;10999;51.332;9.458;2024-01-11T17:16:20;22.05;;;8.50;;
21675;SDS011;10999;51.332;9.458;2024-01-11T17:19:25;19.90;;;8.27;;
21675;SDS011;10999;51.332;9.458;2024-01-11T17:22:29;15.50;;;6.28;;
21675;SDS011;10999;51.332;9.458;2024-01-11T17:25:27;16.05;;;6.10;;
21675;SDS011;10999;51.332;9.458;2024-01-11T17:28:53;14.20;;;5.85;;
21675;SDS011;10999;51.332;9.458;2024-01-11T17:47:45;16.60;;;7.10;;
21675;SDS011;10999;51.332;9.458;2024-01-11T17:50:28;18.30;;;6.35;;
21675;SDS011;10999;51.332;9.458;2024-01-11T17:53:15;22.38;;;7.70;;
21675;SDS011;10999;51.332;9.458;2024-01-11T17:56:02;19.27;;;6.85;;
21675;SDS011;10999;51.332;9.458;2024-01-11T17:58:49;20.20;;;8.13;;
21675;SDS011;10999;51.332;9.458;2024-01-11T18:01:32;17.50;;;7.75;;
21675;SDS011;10999;51.332;9.458;2024-01-11T18:04:21;20.25;;;8.30;;
21675;SDS011;10999;51.332;9.458;2024-01-11T18:07:16;18.98;;;8.40;;
21675;SDS011;10999;51.332;9.458;2024-01-11T18:10:05;19.10;;;7.93;;
21675;SDS011;10999;51.332;9.458;2024-01-11T18:12:49;20.67;;;8.73;;
21675;SDS011;10999;51.332;9.458;2024-01-11T18:15:46;22.20;;;8.85;;
21675;SDS011;10999;51.332;9.458;2024-01-11T18:18:48;22.85;;;7.72;;
21675;SDS011;10999;51.332;9.458;2024-01-11T18:21:27;26.08;;;9.52;;
21675;SDS011;10999;51.332;9.458;2024-01-11T18:24:03;25.67;;;8.75;;
21675;SDS011;10999;51.332;9.458;2024-01-11T18:26:43;24.58;;;9.45;;
21675;SDS011;10999;51.332;9.458;2024-01-11T18:42:46;27.95;;;10.95;;
21675;SDS011;10999;51.332;9.458;2024-01-11T18:45:18;23.45;;;9.10;;
21675;SDS011;10999;51.332;9.458;2024-01-11T18:47:55;26.08;;;10.45;;
21675;SDS011;10999;51.332;9.458;2024-01-11T18:50:38;25.42;;;9.40;;
21675;SDS011;10999;51.332;9.458;2024-01-11T18:53:22;25.52;;;10.23;;
21675;SDS011;10999;51.332;9.458;2024-01-11T18:56:11;29.75;;;10.18;;
21675;SDS011;10999;51.332;9.458;2024-01-11T18:58:56;28.73;;;10.55;;
21675;SDS011;10999;51.332;9.458;2024-01-11T19:01:46;26.83;;;9.55;;
21675;SDS011;10999;51.332;9.458;2024-01-11T19:04:35;27.73;;;9.35;;
21675;SDS011;10999;51.332;9.458;2024-01-11T19:07:27;31.70;;;11.27;;
21675;SDS011;10999;51.332;9.458;2024-01-11T19:10:10;26.15;;;10.70;;
21675;SDS011;10999;51.332;9.458;2024-01-11T19:12:48;26.77;;;10.15;;
21675;SDS011;10999;51.332;9.458;2024-01-11T19:15:25;22.45;;;9.60;;
21675;SDS011;10999;51.332;9.458;2024-01-11T19:18:12;27.48;;;9.95;;
21675;SDS011;10999;51.332;9.458;2024-01-11T19:20:50;28.00;;;10.50;;
21675;SDS011;10999;51.332;9.458;2024-01-11T19:23:23;26.45;;;10.27;;
21675;SDS011;10999;51.332;9.458;2024-01-11T19:26:03;30.13;;;10.77;;
21675;SDS011;10999;51.332;9.458;2024-01-11T19:28:54;28.48;;;10.20;;
21675;SDS011;10999;51.332;9.458;2024-01-11T19:31:36;31.70;;;11.63;;
21675;SDS011;10999;51.332;9.458;2024-01-11T19:34:13;29.65;;;10.07;;
21675;SDS011;10999;51.332;9.458;2024-01-11T19:36:53;30.40;;;12.30;;
21675;SDS011;10999;51.332;9.458;2024-01-11T19:39:30;30.38;;;10.88;;
21675;SDS011;10999;51.332;9.458;2024-01-11T19:42:10;29.38;;;11.25;;
21675;SDS011;10999;51.332;9.458;2024-01-11T19:45:05;29.38;;;12.05;;
21675;SDS011;10999;51.332;9.458;2024-01-11T19:47:57;31.48;;;12.65;;
21675;SDS011;10999;51.332;9.458;2024-01-11T19:51:10;31.10;;;12.45;;
21675;SDS011;10999;51.332;9.458;2024-01-11T19:54:00;35.60;;;12.73;;
21675;SDS011;10999;51.332;9.458;2024-01-11T19:59:42;30.98;;;12.63;;
21675;SDS011;10999;51.332;9.458;2024-01-11T20:02:44;36.88;;;12.80;;
21675;SDS011;10999;51.332;9.458;2024-01-11T20:05:37;34.70;;;12.70;;
21675;SDS011;10999;51.332;9.458;2024-01-11T20:08:45;35.83;;;14.15;;
21675;SDS011;10999;51.332;9.458;2024-01-11T20:11:50;35.50;;;13.85;;
21675;SDS011;10999;51.332;9.458;2024-01-11T20:14:35;36.67;;;14.85;;
21675;SDS011;10999;51.332;9.458;2024-01-11T20:17:27;32.35;;;12.80;;
21675;SDS011;10999;51.332;9.458;2024-01-11T20:20:44;29.67;;;9.90;;
21675;SDS011;10999;51.332;9.458;2024-01-11T20:23:53;26.55;;;9.48;;
21675;SDS011;10999;51.332;9.458;2024-01-11T20:26:43;23.90;;;9.40;;
21675;SDS011;10999;51.332;9.458;2024-01-11T20:29:34;22.95;;;9.02;;
21675;SDS011;10999;51.332;9.458;2024-01-11T20:32:15;21.45;;;8.63;;
21675;SDS011;10999;51.332;9.458;2024-01-11T20:35:08;26.40;;;9.82;;
21675;SDS011;10999;51.332;9.458;2024-01-11T20:38:07;24.08;;;9.65;;
21675;SDS011;10999;51.332;9.458;2024-01-11T20:41:06;26.95;;;9.90;;
21675;SDS011;10999;51.332;9.458;2024-01-11T20:44:04;19.58;;;8.13;;
21675;SDS011;10999;51.332;9.458;2024-01-11T20:46:54;27.48;;;10.60;;
21675;SDS011;10999;51.332;9.458;2024-01-11T20:49:42;25.08;;;9.50;;
21675;SDS011;10999;51.332;9.458;2024-01-11T20:52:44;25.08;;;8.43;;
21675;SDS011;10999;51.332;9.458;2024-01-11T20:55:49;23.85;;;8.27;;
21675;SDS011;10999;51.332;9.458;2024-01-11T20:58:37;25.02;;;8.30;;
21675;SDS011;10999;51.332;9.458;2024-01-11T21:01:47;21.23;;;8.38;;
21675;SDS011;10999;51.332;9.458;2024-01-11T21:04:33;28.30;;;10.63;;
21675;SDS011;10999;51.332;9.458;2024-01-11T21:07:12;28.88;;;9.43;;
21675;SDS011;10999;51.332;9.458;2024-01-11T21:10:16;28.33;;;8.88;;
21675;SDS011;10999;51.332;9.458;2024-01-11T21:13:10;27.67;;;9.98;;
21675;SDS011;10999;51.332;9.458;2024-01-11T21:15:58;25.00;;;9.13;;
21675;SDS011;10999;51.332;9.458;2024-01-11T21:18:54;19.83;;;7.47;;
21675;SDS011;10999;51.332;9.458;2024-01-11T21:21:51;24.77;;;9.27;;
21675;SDS011;10999;51.332;9.458;2024-01-11T21:24:24;23.65;;;7.97;;
21675;SDS011;10999;51.332;9.458;2024-01-11T21:30:04;18.92;;;7.35;;
21675;SDS011;10999;51.332;9.458;2024-01-11T21:32:40;22.83;;;8.32;;
21675;SDS011;10999;51.332;9.458;2024-01-11T21:35:29;22.80;;;8.32;;
21675;SDS011;10999;51.332;9.458;2024-01-11T21:38:20;21.92;;;7.47;;
21675;SDS011;10999;51.332;9.458;2024-01-11T21:41:06;21.63;;;8.30;;
21675;SDS011;10999;51.332;9.458;2024-01-11T21:44:11;24.55;;;8.25;;
21675;SDS011;10999;51.332;9.458;2024-01-11T21:47:00;25.95;;;8.02;;
21675;SDS011;10999;51.332;9.458;2024-01-11T21:49:46;26.27;;;8.75;;
21675;SDS011;10999;51.332;9.458;2024-01-11T21:52:42;22.40;;;8.65;;
21675;SDS011;10999;51.332;9.458;2024-01-11T21:55:44;21.17;;;7.78;;
21675;SDS011;10999;51.332;9.458;2024-01-11T21:58:30;21.65;;;7.97;;
21675;SDS011;10999;51.332;9.458;2024-01-11T22:01:14;24.00;;;9.77;;
21675;SDS011;10999;51.332;9.458;2024-01-11T22:04:21;23.33;;;9.10;;
21675;SDS011;10999;51.332;9.458;2024-01-11T22:07:08;24.73;;;7.75;;
21675;SDS011;10999;51.332;9.458;2024-01-11T22:28:22;19.55;;;6.68;;
21675;SDS011;10999;51.332;9.458;2024-01-11T22:31:08;25.20;;;7.97;;
21675;SDS011;10999;51.332;9.458;2024-01-11T22:33:57;18.48;;;6.65;;
21675;SDS011;10999;51.332;9.458;2024-01-11T22:36:48;18.27;;;5.78;;
21675;SDS011;10999;51.332;9.458;2024-01-11T22:39:32;22.13;;;6.35;;
21675;SDS011;10999;51.332;9.458;2024-01-11T22:42:20;18.23;;;5.93;;
21675;SDS011;10999;51.332;9.458;2024-01-11T22:45:18;20.15;;;6.78;;
21675;SDS011;10999;51.332;9.458;2024-01-11T22:48:04;21.60;;;8.07;;
21675;SDS011;10999;51.332;9.458;2024-01-11T22:50:46;18.98;;;6.60;;
21675;SDS011;10999;51.332;9.458;2024-01-11T22:53:21;19.75;;;7.40;;
21675;SDS011;10999;51.332;9.458;2024-01-11T22:56:22;21.40;;;7.25;;
21675;SDS011;10999;51.332;9.458;2024-01-11T22:59:12;19.35;;;7.15;;
21675;SDS011;10999;51.332;9.458;2024-01-11T23:02:21;19.90;;;7.20;;
21675;SDS011;10999;51.332;9.458;2024-01-11T23:04:59;17.70;;;7.13;;
21675;SDS011;10999;51.332;9.458;2024-01-11T23:07:42;20.95;;;7.00;;
21675;SDS011;10999;51.332;9.458;2024-01-11T23:10:46;18.33;;;7.07;;
21675;SDS011;10999;51.332;9.458;2024-01-11T23:13:35;18.75;;;5.15;;
21675;SDS011;10999;51.332;9.458;2024-01-11T23:16:39;16.92;;;5.80;;
21675;SDS011;10999;51.332;9.458;2024-01-11T23:19:52;19.60;;;6.80;;
21675;SDS011;10999;51.332;9.458;2024-01-11T23:23:00;22.83;;;8.20;;
21675;SDS011;10999;51.332;9.458;2024-01-11T23:25:33;23.77;;;8.20;;
21675;SDS011;10999;51.332;9.458;2024-01-11T23:28:29;18.70;;;7.25;;
21675;SDS011;10999;51.332;9.458;2024-01-11T23:31:16;20.42;;;7.63;;
21675;SDS011;10999;51.332;9.458;2024-01-11T23:34:13;20.25;;;7.07;;
21675;SDS011;10999;51.332;9.458;2024-01-11T23:37:24;24.65;;;8.60;;
21675;SDS011;10999;51.332;9.458;2024-01-11T23:40:10;19.73;;;7.10;;
21675;SDS011;10999;51.332;9.458;2024-01-11T23:43:01;27.90;;;9.15;;
21675;SDS011;10999;51.332;9.458;2024-01-11T23:45:55;21.10;;;8.30;;
21675;SDS011;10999;51.332;9.458;2024-01-11T23:48:37;21.70;;;8.32;;
21675;SDS011;10999;51.332;9.458;2024-01-11T23:51:21;21.95;;;8.13;;
21675;SDS011;10999;51.332;9.458;2024-01-11T23:54:12;23.00;;;7.85;;
21675;SDS011;10999;51.332;9.458;2024-01-11T23:57:03;23.50;;;7.88;;
